createdAt,value
2022-08-28T00:00:40.669Z,100072.60
2022-08-28T00:03:10.970Z,100069.12
2022-08-28T00:05:40.786Z,100068.16
2022-08-28T00:08:11.148Z,100071.77
2022-08-28T00:10:41.227Z,100071.77
2022-08-28T00:13:14.964Z,100077.97
2022-08-28T00:15:43.545Z,100074.45
2022-08-28T00:18:12.476Z,100070.11
2022-08-28T00:20:41.526Z,100068.34
2022-08-28T00:23:10.327Z,100067.47
2022-08-28T00:25:39.057Z,100064.13
2022-08-28T00:28:10.709Z,100063.52
2022-08-28T00:30:52.124Z,100062.78
2022-08-28T00:33:24.712Z,100062.87
2022-08-28T00:35:54.754Z,100056.89
2022-08-28T00:38:26.559Z,100051.75
2022-08-28T00:40:58.186Z,100053.61
2022-08-28T00:43:36.726Z,100049.25
2022-08-28T00:46:08.653Z,100051.14
2022-08-28T00:48:38.466Z,100048.55
2022-08-28T00:51:26.460Z,100058.32
2022-08-28T00:53:58.993Z,100048.78
2022-08-28T00:56:29.425Z,100054.98
2022-08-28T00:59:02.886Z,100059.41
2022-08-28T01:01:31.710Z,100054.14
2022-08-28T01:04:01.734Z,100057.84
2022-08-28T01:06:30.260Z,100060.48
2022-08-28T01:08:59.184Z,100053.48
2022-08-28T01:11:29.564Z,100051.77
2022-08-28T01:14:01.802Z,100050.01
2022-08-28T01:16:33.900Z,100043.86
2022-08-28T01:19:07.563Z,100044.78
2022-08-28T01:21:45.521Z,100043.02
2022-08-28T01:24:18.108Z,100047.37
2022-08-28T01:26:47.162Z,100048.16
2022-08-28T01:29:16.499Z,100050.80
2022-08-28T01:31:45.141Z,100047.15
2022-08-28T01:34:14.330Z,100044.42
2022-08-28T01:36:43.506Z,100045.22
2022-08-28T01:39:16.099Z,100044.20
2022-08-28T01:41:47.752Z,100047.71
2022-08-28T01:44:17.896Z,100041.42
2022-08-28T01:46:49.975Z,100048.50
2022-08-28T01:49:19.066Z,100042.35
2022-08-28T01:51:50.145Z,100050.34
2022-08-28T01:54:21.171Z,100046.00
2022-08-28T01:56:50.431Z,100047.77
2022-08-28T01:59:19.001Z,100048.69
2022-08-28T02:01:47.891Z,100043.59
2022-08-28T02:04:16.620Z,100042.72
2022-08-28T02:06:45.401Z,100050.71
2022-08-28T02:09:14.754Z,100049.84
2022-08-28T02:11:46.628Z,100059.55
2022-08-28T02:14:16.258Z,100053.48
2022-08-28T02:16:44.978Z,100047.42
2022-08-28T02:19:13.450Z,100046.67
2022-08-28T02:21:42.007Z,100055.50
2022-08-28T02:24:10.763Z,100054.63
2022-08-28T02:26:39.952Z,100049.50
2022-08-28T02:29:08.691Z,100046.16
2022-08-28T02:31:37.875Z,100043.68
2022-08-28T02:34:06.660Z,100056.92
2022-08-28T02:36:35.308Z,100051.73
2022-08-28T02:39:03.937Z,100047.37
2022-08-28T02:41:32.415Z,100044.83
2022-08-28T02:44:00.903Z,100044.17
2022-08-28T02:46:29.688Z,100043.47
2022-08-28T02:48:58.468Z,100050.58
2022-08-28T02:51:29.995Z,100052.43
2022-08-28T02:53:58.544Z,100047.45
2022-08-28T02:56:27.035Z,100046.92
2022-08-28T02:58:56.644Z,100044.42
2022-08-28T03:01:25.425Z,100043.76
2022-08-28T03:03:54.183Z,100046.61
2022-08-28T03:06:24.366Z,100047.61
2022-08-28T03:08:52.993Z,100044.18
2022-08-28T03:11:22.412Z,100039.96
2022-08-28T03:13:51.609Z,100034.06
2022-08-28T03:16:20.193Z,100037.61
2022-08-28T03:18:48.965Z,100034.14
2022-08-28T03:21:17.963Z,100041.09
2022-08-28T03:23:46.741Z,100039.33
2022-08-28T03:26:18.413Z,100040.17
2022-08-28T03:28:50.944Z,100047.16
2022-08-28T03:31:22.545Z,100049.00
2022-08-28T03:33:52.255Z,100041.30
2022-08-28T03:36:24.621Z,100048.44
2022-08-28T03:38:55.771Z,100038.03
2022-08-28T03:41:28.847Z,100045.98
2022-08-28T03:43:59.597Z,100046.05
2022-08-28T03:46:31.833Z,100047.85
2022-08-28T03:49:01.942Z,100044.47
2022-08-28T03:51:33.642Z,100046.39
2022-08-28T03:54:03.563Z,100050.86
2022-08-28T03:56:32.415Z,100056.08
2022-08-28T03:59:04.614Z,100062.14
2022-08-28T04:01:33.671Z,100065.54
2022-08-28T04:04:02.661Z,100066.34
2022-08-28T04:06:31.917Z,100061.98
2022-08-28T04:09:00.762Z,100061.06
2022-08-28T04:11:29.408Z,100074.95
2022-08-28T04:13:58.156Z,100070.56
2022-08-28T04:16:27.427Z,100066.21
2022-08-28T04:18:57.808Z,100062.86
2022-08-28T04:21:26.693Z,100065.54
2022-08-28T04:23:55.600Z,100072.52
2022-08-28T04:26:26.925Z,100073.31
2022-08-28T04:28:56.145Z,100073.19
2022-08-28T04:31:31.750Z,100077.46
2022-08-28T04:34:02.616Z,100074.70
2022-08-28T04:36:33.066Z,100071.94
2022-08-28T04:39:02.340Z,100074.42
2022-08-28T04:41:31.474Z,100067.27
2022-08-28T04:43:59.890Z,100067.89
2022-08-28T04:46:31.020Z,100072.95
2022-08-28T04:49:00.623Z,100070.11
2022-08-28T04:51:30.084Z,100070.78
2022-08-28T04:53:59.142Z,100068.77
2022-08-28T04:56:27.875Z,100072.89
2022-08-28T04:58:57.236Z,100066.41
2022-08-28T05:01:26.783Z,100069.61
2022-08-28T05:03:57.985Z,100077.09
2022-08-28T05:06:28.399Z,100081.01
2022-08-28T05:08:58.272Z,100076.16
2022-08-28T05:11:34.362Z,100081.79
2022-08-28T05:14:06.037Z,100079.04
2022-08-28T05:16:39.857Z,100077.70
2022-08-28T05:19:07.547Z,100071.79
2022-08-28T05:21:36.120Z,100083.21
2022-08-28T05:24:06.098Z,100073.69
2022-08-28T05:26:35.434Z,100078.25
2022-08-28T05:29:09.427Z,100072.05
2022-08-28T05:31:38.840Z,100068.69
2022-08-28T05:34:07.675Z,100073.48
2022-08-28T05:36:38.139Z,100069.00
2022-08-28T05:39:12.289Z,100074.11
2022-08-28T05:41:42.990Z,100068.67
2022-08-28T05:44:13.625Z,100075.36
2022-08-28T05:46:47.679Z,100078.63
2022-08-28T05:49:18.938Z,100081.66
2022-08-28T05:51:49.355Z,100082.33
2022-08-28T05:54:18.632Z,100077.59
2022-08-28T05:56:47.379Z,100078.75
2022-08-28T05:59:17.479Z,100078.58
2022-08-28T06:01:49.378Z,100080.66
2022-08-28T06:04:22.011Z,100090.28
2022-08-28T06:06:50.920Z,100086.62
2022-08-28T06:09:29.096Z,100081.13
2022-08-28T06:12:01.941Z,100083.42
2022-08-28T06:14:31.755Z,100083.98
2022-08-28T06:17:02.244Z,100076.45
2022-08-28T06:19:33.442Z,100082.02
2022-08-28T06:22:07.408Z,100080.44
2022-08-28T06:24:37.373Z,100078.95
2022-08-28T06:27:06.341Z,100083.50
2022-08-28T06:29:35.139Z,100080.08
2022-08-28T06:32:04.679Z,100080.04
2022-08-28T06:34:33.578Z,100082.13
2022-08-28T06:37:02.117Z,100080.78
2022-08-28T06:39:30.714Z,100081.05
2022-08-28T06:41:59.431Z,100075.22
2022-08-28T06:44:31.605Z,100075.52
2022-08-28T06:47:00.197Z,100072.36
2022-08-28T06:49:28.736Z,100069.09
2022-08-28T06:51:57.255Z,100077.39
2022-08-28T06:54:25.719Z,100070.63
2022-08-28T06:56:54.435Z,100069.05
2022-08-28T06:59:23.083Z,100069.29
2022-08-28T07:01:54.895Z,100071.63
2022-08-28T07:04:23.766Z,100072.70
2022-08-28T07:06:54.637Z,100073.80
2022-08-28T07:09:23.880Z,100077.63
2022-08-28T07:11:53.526Z,100077.61
2022-08-28T07:14:22.983Z,100065.27
2022-08-28T07:16:54.594Z,100073.01
2022-08-28T07:19:23.078Z,100063.52
2022-08-28T07:21:51.704Z,100069.04
2022-08-28T07:24:20.820Z,100067.53
2022-08-28T07:26:49.734Z,100065.89
2022-08-28T07:29:19.094Z,100066.08
2022-08-28T07:31:52.475Z,100072.52
2022-08-28T07:34:27.063Z,100072.70
2022-08-28T07:36:57.820Z,100067.64
2022-08-28T07:39:26.407Z,100071.44
2022-08-28T07:41:54.884Z,100067.14
2022-08-28T07:44:41.697Z,100070.80
2022-08-28T07:47:13.039Z,100071.57
2022-08-28T07:49:41.572Z,100072.33
2022-08-28T07:52:11.271Z,100071.99
2022-08-28T07:54:40.183Z,100074.20
2022-08-28T07:57:09.765Z,100077.61
2022-08-28T07:59:40.146Z,100072.60
2022-08-28T08:02:12.891Z,100074.77
2022-08-28T08:04:42.587Z,100068.70
2022-08-28T08:07:12.406Z,100078.03
2022-08-28T08:09:43.014Z,100079.21
2022-08-28T08:12:13.793Z,100066.78
2022-08-28T08:14:43.359Z,100070.86
2022-08-28T08:17:12.499Z,100072.36
2022-08-28T08:19:41.020Z,100079.23
2022-08-28T08:22:09.490Z,100069.84
2022-08-28T08:24:38.028Z,100077.24
2022-08-28T08:27:06.655Z,100075.55
2022-08-28T08:29:37.707Z,100074.20
2022-08-28T08:32:09.697Z,100076.67
2022-08-28T08:34:40.036Z,100086.16
2022-08-28T08:37:09.200Z,100078.46
2022-08-28T08:39:38.831Z,100075.06
2022-08-28T08:42:20.465Z,100072.85
2022-08-28T08:44:51.505Z,100080.02
2022-08-28T08:47:26.462Z,100074.77
2022-08-28T08:49:58.711Z,100083.14
2022-08-28T08:52:36.665Z,100084.77
2022-08-28T08:55:20.402Z,100089.17
2022-08-28T08:57:55.494Z,100086.73
2022-08-28T09:00:24.713Z,100087.83
2022-08-28T09:03:02.060Z,100082.34
2022-08-28T09:05:41.293Z,100082.34
2022-08-28T09:08:18.494Z,100079.80
2022-08-28T09:11:00.233Z,100076.31
2022-08-28T09:13:40.944Z,100079.16
2022-08-28T09:16:21.393Z,100080.24
2022-08-28T09:18:50.825Z,100079.53
2022-08-28T09:21:30.671Z,100077.59
2022-08-28T09:24:05.502Z,100077.85
2022-08-28T09:26:34.870Z,100081.97
2022-08-28T09:29:06.728Z,100075.73
2022-08-28T09:31:38.919Z,100076.47
2022-08-28T09:34:27.001Z,100076.52
2022-08-28T09:36:56.983Z,100078.11
2022-08-28T09:39:28.000Z,100082.73
2022-08-28T09:42:22.621Z,100074.13
2022-08-28T09:44:55.785Z,100081.20
2022-08-28T09:47:48.225Z,100073.72
2022-08-28T09:50:25.261Z,100074.70
2022-08-28T09:52:56.461Z,100078.52
2022-08-28T09:55:34.308Z,100077.25
2022-08-28T09:58:04.818Z,100081.41
2022-08-28T10:00:37.635Z,100078.94
2022-08-28T10:03:14.686Z,100076.42
2022-08-28T10:05:53.816Z,100068.49
2022-08-28T10:08:36.728Z,100068.60
2022-08-28T10:11:12.055Z,100069.70
2022-08-28T10:13:50.809Z,100064.74
2022-08-28T10:16:30.311Z,100065.08
2022-08-28T10:19:05.732Z,100063.23
2022-08-28T10:21:40.420Z,100066.74
2022-08-28T10:24:26.355Z,100063.71
2022-08-28T10:27:07.178Z,100065.13
2022-08-28T10:29:48.976Z,100064.78
2022-08-28T10:32:40.748Z,100055.09
2022-08-28T10:35:14.727Z,100058.52
2022-08-28T10:37:55.793Z,100050.16
2022-08-28T10:40:28.980Z,100046.52
2022-08-28T10:43:03.610Z,100052.86
2022-08-28T10:45:34.108Z,100052.16
2022-08-28T10:48:10.272Z,100045.55
2022-08-28T10:50:44.076Z,100051.69
2022-08-28T10:53:16.913Z,100044.63
2022-08-28T10:55:54.349Z,100046.37
2022-08-28T10:58:25.995Z,100048.75
2022-08-28T11:01:00.632Z,100048.73
2022-08-28T11:03:35.111Z,100050.99
2022-08-28T11:06:10.902Z,100049.15
2022-08-28T11:08:40.267Z,100045.86
2022-08-28T11:11:14.630Z,100045.41
2022-08-28T11:13:54.625Z,100052.05
2022-08-28T11:16:35.571Z,100047.45
2022-08-28T11:19:44.548Z,100042.84
2022-08-28T11:22:19.517Z,100047.09
2022-08-28T11:25:03.289Z,100048.13
2022-08-28T11:27:37.480Z,100047.89
2022-08-28T11:30:33.442Z,100054.17
2022-08-28T11:33:06.079Z,100040.97
2022-08-28T11:35:50.440Z,100049.77
2022-08-28T11:38:54.876Z,100041.80
2022-08-28T11:41:26.931Z,100049.55
2022-08-28T11:44:23.401Z,100053.31
2022-08-28T11:46:54.992Z,100046.42
2022-08-28T11:49:45.352Z,100048.73
2022-08-28T11:52:33.092Z,100045.39
2022-08-28T11:55:13.521Z,100046.87
2022-08-28T12:00:48.485Z,100045.55
2022-08-28T12:03:27.870Z,100049.77
2022-08-28T12:05:58.956Z,100055.00
2022-08-28T12:09:10.384Z,100044.92
2022-08-28T12:11:50.614Z,100050.87
2022-08-28T12:15:04.029Z,100051.50
2022-08-28T12:17:51.248Z,100047.59
2022-08-28T12:20:33.040Z,100041.72
2022-08-28T12:23:04.675Z,100040.86
2022-08-28T12:25:36.598Z,100043.41
2022-08-28T12:28:19.546Z,100041.27
2022-08-28T12:30:57.053Z,100040.04
2022-08-28T12:33:34.302Z,100041.08
2022-08-28T12:36:05.977Z,100038.79
2022-08-28T12:38:34.853Z,100040.59
2022-08-28T12:41:03.928Z,100029.78
2022-08-28T12:43:40.316Z,100029.38
2022-08-28T12:46:19.408Z,100027.56
2022-08-28T12:48:51.064Z,100022.14
2022-08-28T12:51:22.956Z,100020.41
2022-08-28T12:53:54.727Z,100027.70
2022-08-28T12:56:26.184Z,100025.00
2022-08-28T12:58:54.708Z,100019.13
2022-08-28T13:01:30.067Z,100010.31
2022-08-28T13:04:02.943Z,100009.33
2022-08-28T13:06:31.588Z,100006.13
2022-08-28T13:09:02.947Z,100007.83
2022-08-28T13:11:35.966Z,100005.97
2022-08-28T13:14:07.488Z,99998.53
2022-08-28T13:16:39.681Z,99996.52
2022-08-28T13:19:18.896Z,99999.70
2022-08-28T13:22:00.221Z,99992.97
2022-08-28T13:24:45.174Z,99991.63
2022-08-28T13:27:31.130Z,99993.96
2022-08-28T13:30:06.306Z,99985.87
2022-08-28T13:32:38.627Z,99982.34
2022-08-28T13:35:35.524Z,99978.11
2022-08-28T13:38:07.617Z,99978.26
2022-08-28T13:41:03.396Z,99981.30
2022-08-28T13:43:44.697Z,99983.95
2022-08-28T13:46:13.479Z,99983.23
2022-08-28T13:48:42.067Z,99983.28
2022-08-28T13:51:20.777Z,99980.63
2022-08-28T13:53:50.215Z,99981.30
2022-08-28T13:56:21.873Z,99984.33
2022-08-28T13:58:57.863Z,99978.59
2022-08-28T14:01:47.055Z,99979.66
2022-08-28T14:04:15.828Z,99987.76
2022-08-28T14:06:44.531Z,99978.96
2022-08-28T14:09:14.817Z,99974.39
2022-08-28T14:11:44.109Z,99981.30
2022-08-28T14:14:12.714Z,99975.90
2022-08-28T14:16:41.661Z,99980.99
2022-08-28T14:19:10.153Z,99977.62
2022-08-28T14:21:40.587Z,99982.34
2022-08-28T14:24:09.275Z,99978.13
2022-08-28T14:26:38.314Z,99975.30
2022-08-28T14:29:08.876Z,99978.85
2022-08-28T14:31:40.402Z,99978.34
2022-08-28T14:34:10.661Z,99978.16
2022-08-28T14:36:40.540Z,99982.69
2022-08-28T14:39:11.322Z,99981.19
2022-08-28T14:41:45.726Z,99978.67
2022-08-28T14:44:14.411Z,99991.80
2022-08-28T14:46:45.311Z,99984.72
2022-08-28T14:49:16.163Z,99980.33
2022-08-28T14:51:46.223Z,99980.16
2022-08-28T14:54:17.455Z,99989.20
2022-08-28T14:56:47.102Z,99987.31
2022-08-28T14:59:23.664Z,99996.52
2022-08-28T15:01:54.711Z,100000.02
2022-08-28T15:04:25.529Z,100000.51
2022-08-28T15:06:58.710Z,100002.48
2022-08-28T15:09:26.985Z,100011.22
2022-08-28T15:11:55.603Z,100008.30
2022-08-28T15:14:25.215Z,100010.30
2022-08-28T15:16:53.855Z,100014.16
2022-08-28T15:19:22.910Z,100014.84
2022-08-28T15:21:54.560Z,100015.68
2022-08-28T15:24:25.754Z,100018.85
2022-08-28T15:26:54.584Z,100020.72
2022-08-28T15:29:23.879Z,100021.02
2022-08-28T15:31:53.309Z,100018.47
2022-08-28T15:34:24.471Z,100017.95
2022-08-28T15:36:55.994Z,100019.60
2022-08-28T15:39:43.885Z,100010.80
2022-08-28T15:42:13.052Z,100010.19
2022-08-28T15:44:41.669Z,100002.07
2022-08-28T15:47:12.033Z,99995.45
2022-08-28T15:49:46.588Z,99999.77
2022-08-28T15:52:18.863Z,100000.07
2022-08-28T15:54:49.543Z,100008.61
2022-08-28T15:57:18.053Z,100008.38
2022-08-28T15:59:50.076Z,99998.73
2022-08-28T16:02:22.405Z,100008.84
2022-08-28T16:04:52.569Z,100005.23
2022-08-28T16:07:22.489Z,100006.98
2022-08-28T16:09:51.474Z,100011.42
2022-08-28T16:12:20.320Z,100006.09
2022-08-28T16:14:49.815Z,100015.22
2022-08-28T16:17:18.829Z,100018.94
2022-08-28T16:19:48.687Z,100018.30
2022-08-28T16:22:17.684Z,100015.91
2022-08-28T16:24:46.497Z,100030.09
2022-08-28T16:27:15.982Z,100026.44
2022-08-28T16:29:45.858Z,100022.94
2022-08-28T16:32:14.479Z,100018.30
2022-08-28T16:34:44.705Z,100021.86
2022-08-28T16:37:19.409Z,100025.50
2022-08-28T16:39:54.408Z,100024.55
2022-08-28T16:42:23.282Z,100023.56
2022-08-28T16:44:56.709Z,100025.41
2022-08-28T16:47:24.322Z,100030.61
2022-08-28T16:49:56.883Z,100037.69
2022-08-28T16:52:26.184Z,100032.31
2022-08-28T16:54:54.788Z,100040.17
2022-08-28T16:57:23.604Z,100046.94
2022-08-28T16:59:53.481Z,100050.86
2022-08-28T17:02:24.599Z,100048.03
2022-08-28T17:04:58.182Z,100046.04
2022-08-28T17:07:26.775Z,100057.31
2022-08-28T17:09:55.414Z,100066.86
2022-08-28T17:12:23.947Z,100081.78
2022-08-28T17:14:52.971Z,100097.10
2022-08-28T17:17:21.586Z,100109.09
2022-08-28T17:19:50.090Z,100118.00
2022-08-28T17:22:31.489Z,100119.69
2022-08-28T17:25:01.577Z,100124.13
2022-08-28T17:27:31.590Z,100134.91
2022-08-28T17:30:03.456Z,100132.05
2022-08-28T17:32:32.344Z,100142.52
2022-08-28T17:35:01.714Z,100151.75
2022-08-28T17:37:31.362Z,100157.54
2022-08-28T17:40:00.046Z,100168.63
2022-08-28T17:42:28.609Z,100160.39
2022-08-28T17:44:57.071Z,100157.76
2022-08-28T17:47:26.239Z,100157.27
2022-08-28T17:50:00.843Z,100166.61
2022-08-28T17:52:29.828Z,100172.20
2022-08-28T17:54:58.614Z,100170.20
2022-08-28T17:57:29.980Z,100171.48
2022-08-28T18:00:00.392Z,100168.06
2022-08-28T18:02:29.188Z,100163.92
2022-08-28T18:04:57.795Z,100159.13
2022-08-28T18:07:26.686Z,100160.39
2022-08-28T18:09:55.509Z,100156.58
2022-08-28T18:12:24.036Z,100162.30
2022-08-28T18:14:52.550Z,100165.48
2022-08-28T18:17:21.118Z,100170.35
2022-08-28T18:19:50.423Z,100157.48
2022-08-28T18:22:18.920Z,100154.16
2022-08-28T18:24:52.499Z,100162.33
2022-08-28T18:27:20.241Z,100159.87
2022-08-28T18:29:50.071Z,100152.40
2022-08-28T18:32:18.723Z,100155.48
2022-08-28T18:34:47.242Z,100148.96
2022-08-28T18:37:16.185Z,100147.86
2022-08-28T18:39:44.774Z,100146.69
2022-08-28T18:42:14.272Z,100147.18
2022-08-28T18:44:42.887Z,100151.27
2022-08-28T18:47:11.450Z,100154.41
2022-08-28T18:49:42.542Z,100156.53
2022-08-28T18:52:11.952Z,100155.09
2022-08-28T18:54:40.544Z,100153.09
2022-08-28T18:57:10.935Z,100162.48
2022-08-28T18:59:40.330Z,100163.17
2022-08-28T19:02:09.058Z,100157.57
2022-08-28T19:04:38.445Z,100155.38
2022-08-28T19:07:07.318Z,100152.28
2022-08-28T19:09:36.254Z,100148.94
2022-08-28T19:12:06.201Z,100154.53
2022-08-28T19:14:35.444Z,100139.66
2022-08-28T19:17:04.596Z,100143.65
2022-08-28T19:19:33.427Z,100147.31
2022-08-28T19:22:02.813Z,100144.08
2022-08-28T19:24:33.159Z,100146.23
2022-08-28T19:27:02.995Z,100158.23
2022-08-28T19:29:31.965Z,100142.05
2022-08-28T19:32:01.177Z,100157.45
2022-08-28T19:34:31.595Z,100158.56
2022-08-28T19:37:00.490Z,100157.80
2022-08-28T19:39:30.093Z,100158.73
2022-08-28T19:41:59.110Z,100153.54
2022-08-28T19:44:27.843Z,100157.80
2022-08-28T19:46:56.885Z,100153.37
2022-08-28T19:49:25.526Z,100156.02
2022-08-28T19:51:54.252Z,100149.01
2022-08-28T19:54:22.915Z,100153.71
2022-08-28T19:56:51.426Z,100143.38
2022-08-28T19:59:21.964Z,100150.66
2022-08-28T20:01:53.949Z,100147.14
2022-08-28T20:04:22.545Z,100143.66
2022-08-28T20:06:51.091Z,100141.00
2022-08-28T20:09:19.601Z,100133.16
2022-08-28T20:11:49.286Z,100132.28
2022-08-28T20:14:19.797Z,100127.09
2022-08-28T20:16:51.127Z,100131.72
2022-08-28T20:19:20.729Z,100133.59
2022-08-28T20:21:50.654Z,100134.53
2022-08-28T20:24:23.546Z,100130.27
2022-08-28T20:26:52.448Z,100135.74
2022-08-28T20:29:23.635Z,100127.89
2022-08-28T20:31:52.666Z,100130.55
2022-08-28T20:34:21.612Z,100125.31
2022-08-28T20:36:50.274Z,100123.54
2022-08-28T20:39:20.280Z,100122.67
2022-08-28T20:41:49.488Z,100128.91
2022-08-28T20:44:19.716Z,100126.25
2022-08-28T20:46:51.474Z,100124.64
2022-08-28T20:49:23.301Z,100124.07
2022-08-28T20:51:57.087Z,100119.01
2022-08-28T20:54:29.869Z,100121.82
2022-08-28T20:57:01.894Z,100119.34
2022-08-28T20:59:35.367Z,100116.59
2022-08-28T21:02:10.786Z,100123.59
2022-08-28T21:04:40.231Z,100127.95
2022-08-28T21:07:08.825Z,100120.95
2022-08-28T21:10:02.204Z,100124.54
2022-08-28T21:12:26.209Z,100119.44
2022-08-28T21:14:54.866Z,100124.73
2022-08-28T21:17:29.814Z,100124.80
2022-08-28T21:20:02.781Z,100123.03
2022-08-28T21:22:35.197Z,100136.16
2022-08-28T21:25:06.022Z,100135.39
2022-08-28T21:27:36.274Z,100145.98
2022-08-28T21:30:07.703Z,100144.27
2022-08-28T21:32:36.761Z,100145.20
2022-08-28T21:35:10.407Z,100145.14
2022-08-28T21:37:40.995Z,100160.09
2022-08-28T21:40:13.088Z,100166.33
2022-08-28T21:42:42.533Z,100165.45
2022-08-28T21:45:12.513Z,100162.80
2022-08-28T21:47:41.819Z,100172.56
2022-08-28T21:50:11.386Z,100178.79
2022-08-28T21:52:40.082Z,100186.73
2022-08-28T21:55:13.101Z,100186.64
2022-08-28T21:57:42.362Z,100193.73
2022-08-28T22:00:15.904Z,100200.75
2022-08-28T22:02:44.618Z,100199.03
2022-08-28T22:05:13.597Z,100196.39
2022-08-28T22:07:43.720Z,100199.03
2022-08-28T22:10:12.370Z,100192.87
2022-08-28T22:12:40.971Z,100192.03
2022-08-28T22:15:10.318Z,100188.60
2022-08-28T22:17:38.795Z,100185.12
2022-08-28T22:20:09.563Z,100199.29
2022-08-28T22:22:56.816Z,100198.42
2022-08-28T22:25:25.630Z,100193.13
2022-08-28T22:27:54.164Z,100194.94
2022-08-28T22:30:23.563Z,100197.67
2022-08-28T22:32:52.882Z,100204.75
2022-08-28T22:35:21.351Z,100206.55
2022-08-28T22:37:50.038Z,100209.20
2022-08-28T22:40:19.736Z,100206.62
2022-08-28T22:42:49.950Z,100198.87
2022-08-28T22:45:20.113Z,100209.52
2022-08-28T22:47:49.119Z,100202.61
2022-08-28T22:50:18.103Z,100204.48
2022-08-28T22:52:48.406Z,100201.05
2022-08-28T22:55:18.773Z,100200.22
2022-08-28T22:57:47.684Z,100202.86
2022-08-28T23:00:19.805Z,100206.28
2022-08-28T23:02:48.438Z,100195.70
2022-08-28T23:05:18.388Z,100215.94
2022-08-28T23:07:46.925Z,100222.91
2022-08-28T23:10:15.637Z,100243.16
2022-08-28T23:12:45.399Z,100238.98
2022-08-28T23:15:16.527Z,100237.27
2022-08-28T23:17:45.926Z,100238.11
2022-08-28T23:20:18.729Z,100223.16
2022-08-28T23:22:48.235Z,100218.74
2022-08-28T23:25:19.811Z,100206.54
2022-08-28T23:27:49.737Z,100205.67
2022-08-28T23:30:19.745Z,100189.95
2022-08-28T23:32:48.211Z,100203.17
2022-08-28T23:35:17.729Z,100197.14
2022-08-28T23:37:52.087Z,100190.20
2022-08-28T23:40:23.790Z,100195.48
2022-08-28T23:42:53.471Z,100189.20
2022-08-28T23:45:22.879Z,100187.39
2022-08-28T23:47:51.796Z,100190.88
2022-08-28T23:50:22.103Z,100184.84
2022-08-28T23:52:50.895Z,100178.67
2022-08-28T23:55:20.652Z,100188.33
2022-08-28T23:57:51.115Z,100189.20
